Search for airport 
image banner adimage banner adimage banner ad
image banner ad

KDVN - Davenport Muni

Located in Davenport, United States

ICAO - DVN, IATA - DVN

Data provided by Airmate  

General information

Coordinates: N41°36'37" W90°35'18"
Elevation is 751 feet MSL.
Magnetic variation is 01° East
View others Airports in Iowa

Operational data

Special qualification required
Current time UTC:
Current local time:
Weather
METAR: KDVN 181752Z AUTO 36006KT 10SM CLR 31/21 A2980 RMK AO2 SLP079 T03060211 10306 20250 58005
View NOTAMs / SUP AIP / TFR affecting this airport [VIEW]
Communications frequencies: [VIEW]

Runways:

RWY identifierQFULength (ft)Width (ft)SurfaceLDA (ft)
0330°4001100CONC
21210°4001100CONC
15150°5511100CONC
33330°5511100CONC

Airport contact information

Address: Davenport United States

Other aviation service providers

Flight schools

Carver Aero, Inc.

Carver Aero, Inc.

Satellite view of KDVN